Main page
METAR-TAF:

METAR-TAF

Airports :

Humberside, England

Humberside Airport

latitude: 53-35N, longitude: 000-21W, elevation: 31 m

Current weather observation

The report was made 27 minutes ago, at 23:50 UTC
Wind 5 kt from the South/Southwest
Temperature 10°C
Humidity 87%
Pressure 1018 hPa
Visibility 10 km or more

METAR: EGNJ 192350Z AUTO 20005KT 9999 SCT044/// 10/08 Q1018

Time: 01:17 (00:17 UTC)

Forecast

The report was made 1 hour and 22 minutes ago, at 22:55 UTC
Forecast valid from 20 at 00 UTC to 20 at 09 UTC
Wind 6 kt from the Southwest
Visibility 10 km or more
Scattered clouds at a height of 4000 ft
Probability 40%
from 20 at 00 UTC to 20 at 08 UTC
Visibility: 6000 m

TAF: EGNJ 192255Z 2000/2009 23006KT 9999 SCT040 PROB40 2000/2008 6000

Weather observations and forecasts of more than 4000 airports (METAR and TAF reports).

The available stations are represented by yellow and red dots on the map.

Hover mouse over dot to see the name of the station.

Then click to see weather observations and forecasts.

To change the map : click on the green buttons with a black cross to zoom in, on the green button with a dash to zoom out, or on the green arrows for adjacent maps.


METAR-TAF: